sensor_id;sensor_type;location;lat;lon;timestamp;P1;durP1;ratioP1;P2;durP2;ratioP2
25663;SDS011;13522;50.018;20.014;2022-12-18T00:02:16;82.15;;;34.23;;
25663;SDS011;13522;50.018;20.014;2022-12-18T00:05:28;86.00;;;37.08;;
25663;SDS011;13522;50.018;20.014;2022-12-18T00:08:40;81.03;;;36.38;;
25663;SDS011;13522;50.018;20.014;2022-12-18T00:11:52;85.22;;;36.90;;
25663;SDS011;13522;50.018;20.014;2022-12-18T00:15:07;84.98;;;35.25;;
25663;SDS011;13522;50.018;20.014;2022-12-18T00:18:20;82.80;;;36.50;;
25663;SDS011;13522;50.018;20.014;2022-12-18T00:21:32;79.25;;;34.08;;
25663;SDS011;13522;50.018;20.014;2022-12-18T00:24:45;72.35;;;31.05;;
25663;SDS011;13522;50.018;20.014;2022-12-18T00:27:57;83.55;;;35.55;;
25663;SDS011;13522;50.018;20.014;2022-12-18T00:31:10;76.73;;;33.75;;
25663;SDS011;13522;50.018;20.014;2022-12-18T00:34:24;79.58;;;33.13;;
25663;SDS011;13522;50.018;20.014;2022-12-18T00:37:36;78.30;;;34.43;;
25663;SDS011;13522;50.018;20.014;2022-12-18T00:40:48;78.73;;;33.33;;
25663;SDS011;13522;50.018;20.014;2022-12-18T00:44:00;78.70;;;33.40;;
25663;SDS011;13522;50.018;20.014;2022-12-18T00:47:13;79.18;;;34.45;;
25663;SDS011;13522;50.018;20.014;2022-12-18T00:50:25;75.20;;;32.53;;
25663;SDS011;13522;50.018;20.014;2022-12-18T00:53:37;78.15;;;34.35;;
25663;SDS011;13522;50.018;20.014;2022-12-18T00:56:49;79.95;;;35.58;;
25663;SDS011;13522;50.018;20.014;2022-12-18T01:00:02;76.48;;;33.38;;
25663;SDS011;13522;50.018;20.014;2022-12-18T01:03:18;81.23;;;34.85;;
25663;SDS011;13522;50.018;20.014;2022-12-18T01:06:30;81.98;;;35.13;;
25663;SDS011;13522;50.018;20.014;2022-12-18T01:09:43;76.38;;;32.93;;
25663;SDS011;13522;50.018;20.014;2022-12-18T01:12:55;69.13;;;32.80;;
25663;SDS011;13522;50.018;20.014;2022-12-18T01:16:07;73.80;;;34.03;;
25663;SDS011;13522;50.018;20.014;2022-12-18T01:19:21;80.25;;;33.38;;
25663;SDS011;13522;50.018;20.014;2022-12-18T01:22:34;80.28;;;33.68;;
25663;SDS011;13522;50.018;20.014;2022-12-18T01:25:46;79.45;;;32.88;;
25663;SDS011;13522;50.018;20.014;2022-12-18T01:28:58;75.28;;;32.15;;
25663;SDS011;13522;50.018;20.014;2022-12-18T01:32:10;76.38;;;33.73;;
25663;SDS011;13522;50.018;20.014;2022-12-18T01:35:22;77.65;;;32.20;;
25663;SDS011;13522;50.018;20.014;2022-12-18T01:38:34;75.53;;;33.13;;
25663;SDS011;13522;50.018;20.014;2022-12-18T01:41:46;75.58;;;33.55;;
25663;SDS011;13522;50.018;20.014;2022-12-18T01:45:23;72.80;;;31.83;;
25663;SDS011;13522;50.018;20.014;2022-12-18T01:48:38;80.37;;;34.30;;
25663;SDS011;13522;50.018;20.014;2022-12-18T01:51:51;69.75;;;32.30;;
25663;SDS011;13522;50.018;20.014;2022-12-18T01:55:04;73.28;;;32.85;;
25663;SDS011;13522;50.018;20.014;2022-12-18T01:58:18;73.45;;;31.88;;
25663;SDS011;13522;50.018;20.014;2022-12-18T02:01:36;72.83;;;32.03;;
25663;SDS011;13522;50.018;20.014;2022-12-18T02:04:48;70.28;;;30.40;;
25663;SDS011;13522;50.018;20.014;2022-12-18T02:08:02;72.60;;;32.20;;
25663;SDS011;13522;50.018;20.014;2022-12-18T02:11:20;69.63;;;33.03;;
25663;SDS011;13522;50.018;20.014;2022-12-18T02:14:41;67.63;;;31.43;;
25663;SDS011;13522;50.018;20.014;2022-12-18T02:17:58;74.40;;;32.13;;
25663;SDS011;13522;50.018;20.014;2022-12-18T02:21:16;74.65;;;32.38;;
25663;SDS011;13522;50.018;20.014;2022-12-18T02:24:34;66.13;;;31.45;;
25663;SDS011;13522;50.018;20.014;2022-12-18T02:27:51;72.70;;;30.60;;
25663;SDS011;13522;50.018;20.014;2022-12-18T02:31:07;71.85;;;31.33;;
25663;SDS011;13522;50.018;20.014;2022-12-18T02:34:26;68.58;;;30.73;;
25663;SDS011;13522;50.018;20.014;2022-12-18T02:37:41;74.73;;;32.55;;
25663;SDS011;13522;50.018;20.014;2022-12-18T02:40:57;66.70;;;31.17;;
25663;SDS011;13522;50.018;20.014;2022-12-18T02:44:12;71.10;;;30.85;;
25663;SDS011;13522;50.018;20.014;2022-12-18T02:47:24;71.78;;;31.85;;
25663;SDS011;13522;50.018;20.014;2022-12-18T02:50:44;84.48;;;33.78;;
25663;SDS011;13522;50.018;20.014;2022-12-18T02:54:00;73.48;;;30.65;;
25663;SDS011;13522;50.018;20.014;2022-12-18T02:57:18;74.80;;;32.38;;
25663;SDS011;13522;50.018;20.014;2022-12-18T03:00:38;73.15;;;32.78;;
25663;SDS011;13522;50.018;20.014;2022-12-18T03:03:55;73.30;;;31.70;;
25663;SDS011;13522;50.018;20.014;2022-12-18T03:07:14;70.30;;;31.20;;
25663;SDS011;13522;50.018;20.014;2022-12-18T03:10:32;72.65;;;31.18;;
25663;SDS011;13522;50.018;20.014;2022-12-18T03:17:02;71.90;;;32.70;;
25663;SDS011;13522;50.018;20.014;2022-12-18T03:20:17;73.43;;;32.53;;
25663;SDS011;13522;50.018;20.014;2022-12-18T03:23:32;75.35;;;31.73;;
25663;SDS011;13522;50.018;20.014;2022-12-18T03:26:50;72.63;;;31.68;;
25663;SDS011;13522;50.018;20.014;2022-12-18T03:30:08;74.63;;;33.68;;
25663;SDS011;13522;50.018;20.014;2022-12-18T03:33:24;70.68;;;32.00;;
25663;SDS011;13522;50.018;20.014;2022-12-18T03:36:39;73.03;;;31.93;;
25663;SDS011;13522;50.018;20.014;2022-12-18T03:39:52;70.43;;;30.53;;
25663;SDS011;13522;50.018;20.014;2022-12-18T03:43:07;71.65;;;30.48;;
25663;SDS011;13522;50.018;20.014;2022-12-18T03:46:26;69.08;;;30.83;;
25663;SDS011;13522;50.018;20.014;2022-12-18T03:49:45;71.13;;;32.38;;
25663;SDS011;13522;50.018;20.014;2022-12-18T03:53:08;73.10;;;29.75;;
25663;SDS011;13522;50.018;20.014;2022-12-18T03:56:29;65.20;;;28.35;;
25663;SDS011;13522;50.018;20.014;2022-12-18T03:59:47;65.55;;;29.60;;
25663;SDS011;13522;50.018;20.014;2022-12-18T04:03:06;66.80;;;30.23;;
25663;SDS011;13522;50.018;20.014;2022-12-18T04:06:22;71.43;;;30.50;;
25663;SDS011;13522;50.018;20.014;2022-12-18T04:09:35;64.03;;;29.03;;
25663;SDS011;13522;50.018;20.014;2022-12-18T04:12:50;74.28;;;32.00;;
25663;SDS011;13522;50.018;20.014;2022-12-18T04:16:06;71.38;;;31.23;;
25663;SDS011;13522;50.018;20.014;2022-12-18T04:19:20;69.90;;;30.65;;
25663;SDS011;13522;50.018;20.014;2022-12-18T04:22:32;73.98;;;30.90;;
25663;SDS011;13522;50.018;20.014;2022-12-18T04:25:44;68.23;;;30.30;;
25663;SDS011;13522;50.018;20.014;2022-12-18T04:28:59;65.73;;;29.50;;
25663;SDS011;13522;50.018;20.014;2022-12-18T04:32:11;60.13;;;29.10;;
25663;SDS011;13522;50.018;20.014;2022-12-18T04:35:24;62.23;;;29.05;;
25663;SDS011;13522;50.018;20.014;2022-12-18T04:38:36;65.88;;;29.38;;
25663;SDS011;13522;50.018;20.014;2022-12-18T04:41:50;64.60;;;28.75;;
25663;SDS011;13522;50.018;20.014;2022-12-18T04:45:02;69.93;;;29.43;;
25663;SDS011;13522;50.018;20.014;2022-12-18T04:48:17;74.13;;;31.38;;
25663;SDS011;13522;50.018;20.014;2022-12-18T04:51:28;74.35;;;31.58;;
25663;SDS011;13522;50.018;20.014;2022-12-18T04:54:40;78.50;;;34.10;;
25663;SDS011;13522;50.018;20.014;2022-12-18T04:57:52;76.83;;;31.63;;
25663;SDS011;13522;50.018;20.014;2022-12-18T05:01:05;70.80;;;31.63;;
25663;SDS011;13522;50.018;20.014;2022-12-18T05:04:17;70.38;;;30.10;;
25663;SDS011;13522;50.018;20.014;2022-12-18T05:07:29;71.33;;;30.58;;
25663;SDS011;13522;50.018;20.014;2022-12-18T05:10:41;70.58;;;30.63;;
25663;SDS011;13522;50.018;20.014;2022-12-18T05:13:53;63.18;;;28.55;;
25663;SDS011;13522;50.018;20.014;2022-12-18T05:17:05;72.70;;;30.20;;
25663;SDS011;13522;50.018;20.014;2022-12-18T05:20:17;66.38;;;29.45;;
25663;SDS011;13522;50.018;20.014;2022-12-18T05:23:29;65.50;;;27.20;;
25663;SDS011;13522;50.018;20.014;2022-12-18T05:26:45;68.58;;;28.55;;
25663;SDS011;13522;50.018;20.014;2022-12-18T05:29:58;66.60;;;28.20;;
25663;SDS011;13522;50.018;20.014;2022-12-18T05:33:10;64.85;;;29.35;;
25663;SDS011;13522;50.018;20.014;2022-12-18T05:36:22;66.95;;;28.48;;
25663;SDS011;13522;50.018;20.014;2022-12-18T05:39:34;59.95;;;28.30;;
25663;SDS011;13522;50.018;20.014;2022-12-18T05:42:46;70.38;;;30.10;;
25663;SDS011;13522;50.018;20.014;2022-12-18T05:46:02;66.48;;;28.43;;
25663;SDS011;13522;50.018;20.014;2022-12-18T05:49:16;71.03;;;30.05;;
25663;SDS011;13522;50.018;20.014;2022-12-18T05:52:28;68.83;;;31.50;;
25663;SDS011;13522;50.018;20.014;2022-12-18T05:55:40;68.80;;;31.15;;
25663;SDS011;13522;50.018;20.014;2022-12-18T05:58:53;66.88;;;30.10;;
25663;SDS011;13522;50.018;20.014;2022-12-18T06:02:06;71.18;;;33.65;;
25663;SDS011;13522;50.018;20.014;2022-12-18T06:05:18;71.50;;;29.80;;
25663;SDS011;13522;50.018;20.014;2022-12-18T06:08:30;67.58;;;29.90;;
25663;SDS011;13522;50.018;20.014;2022-12-18T06:11:44;66.58;;;29.90;;
25663;SDS011;13522;50.018;20.014;2022-12-18T06:14:56;66.28;;;29.60;;
25663;SDS011;13522;50.018;20.014;2022-12-18T06:18:08;66.90;;;30.30;;
25663;SDS011;13522;50.018;20.014;2022-12-18T06:21:20;70.43;;;30.20;;
25663;SDS011;13522;50.018;20.014;2022-12-18T06:24:32;71.55;;;31.30;;
25663;SDS011;13522;50.018;20.014;2022-12-18T06:27:44;68.33;;;30.83;;
25663;SDS011;13522;50.018;20.014;2022-12-18T06:30:58;71.40;;;30.03;;
25663;SDS011;13522;50.018;20.014;2022-12-18T06:34:13;70.55;;;29.58;;
25663;SDS011;13522;50.018;20.014;2022-12-18T06:37:25;72.08;;;31.18;;
25663;SDS011;13522;50.018;20.014;2022-12-18T06:40:38;71.98;;;28.98;;
25663;SDS011;13522;50.018;20.014;2022-12-18T06:43:50;73.83;;;32.73;;
25663;SDS011;13522;50.018;20.014;2022-12-18T06:47:03;70.95;;;30.40;;
25663;SDS011;13522;50.018;20.014;2022-12-18T06:50:15;70.03;;;30.70;;
25663;SDS011;13522;50.018;20.014;2022-12-18T06:53:27;74.08;;;30.68;;
25663;SDS011;13522;50.018;20.014;2022-12-18T06:56:39;79.35;;;32.25;;
25663;SDS011;13522;50.018;20.014;2022-12-18T06:59:54;69.13;;;30.05;;
25663;SDS011;13522;50.018;20.014;2022-12-18T07:03:07;70.85;;;30.13;;
25663;SDS011;13522;50.018;20.014;2022-12-18T07:06:19;71.15;;;30.65;;
25663;SDS011;13522;50.018;20.014;2022-12-18T07:09:34;70.28;;;30.43;;
25663;SDS011;13522;50.018;20.014;2022-12-18T07:12:46;72.30;;;32.58;;
25663;SDS011;13522;50.018;20.014;2022-12-18T07:16:04;74.15;;;31.65;;
25663;SDS011;13522;50.018;20.014;2022-12-18T07:19:20;83.70;;;33.10;;
25663;SDS011;13522;50.018;20.014;2022-12-18T07:22:34;82.28;;;34.33;;
25663;SDS011;13522;50.018;20.014;2022-12-18T07:25:46;78.55;;;33.40;;
25663;SDS011;13522;50.018;20.014;2022-12-18T07:28:58;74.75;;;32.23;;
25663;SDS011;13522;50.018;20.014;2022-12-18T07:32:10;89.95;;;36.98;;
25663;SDS011;13522;50.018;20.014;2022-12-18T07:35:22;82.65;;;34.00;;
25663;SDS011;13522;50.018;20.014;2022-12-18T07:38:34;88.83;;;35.43;;
25663;SDS011;13522;50.018;20.014;2022-12-18T07:41:47;82.20;;;34.63;;
25663;SDS011;13522;50.018;20.014;2022-12-18T07:45:10;84.93;;;35.63;;
25663;SDS011;13522;50.018;20.014;2022-12-18T07:48:22;81.18;;;35.13;;
25663;SDS011;13522;50.018;20.014;2022-12-18T07:51:34;81.18;;;35.38;;
25663;SDS011;13522;50.018;20.014;2022-12-18T07:54:46;78.58;;;34.55;;
25663;SDS011;13522;50.018;20.014;2022-12-18T07:58:00;75.35;;;33.88;;
25663;SDS011;13522;50.018;20.014;2022-12-18T08:01:12;81.63;;;34.25;;
25663;SDS011;13522;50.018;20.014;2022-12-18T08:04:25;74.08;;;34.65;;
25663;SDS011;13522;50.018;20.014;2022-12-18T08:07:37;81.13;;;35.50;;
25663;SDS011;13522;50.018;20.014;2022-12-18T08:10:49;78.38;;;36.78;;
25663;SDS011;13522;50.018;20.014;2022-12-18T08:14:01;79.38;;;34.05;;
25663;SDS011;13522;50.018;20.014;2022-12-18T08:17:13;72.38;;;33.03;;
25663;SDS011;13522;50.018;20.014;2022-12-18T08:20:25;78.18;;;32.50;;
25663;SDS011;13522;50.018;20.014;2022-12-18T08:23:38;72.05;;;32.43;;
25663;SDS011;13522;50.018;20.014;2022-12-18T08:26:52;78.45;;;33.73;;
25663;SDS011;13522;50.018;20.014;2022-12-18T08:30:07;76.25;;;32.68;;
25663;SDS011;13522;50.018;20.014;2022-12-18T08:33:22;74.30;;;32.53;;
25663;SDS011;13522;50.018;20.014;2022-12-18T08:36:34;74.00;;;33.20;;
25663;SDS011;13522;50.018;20.014;2022-12-18T08:39:46;79.65;;;33.33;;
25663;SDS011;13522;50.018;20.014;2022-12-18T08:43:00;73.70;;;32.10;;
25663;SDS011;13522;50.018;20.014;2022-12-18T08:46:32;75.80;;;33.48;;
25663;SDS011;13522;50.018;20.014;2022-12-18T08:49:46;76.28;;;32.95;;
25663;SDS011;13522;50.018;20.014;2022-12-18T08:53:01;73.40;;;32.28;;
25663;SDS011;13522;50.018;20.014;2022-12-18T08:56:14;74.40;;;32.15;;
25663;SDS011;13522;50.018;20.014;2022-12-18T08:59:27;69.18;;;30.58;;
25663;SDS011;13522;50.018;20.014;2022-12-18T09:02:40;72.98;;;32.20;;
25663;SDS011;13522;50.018;20.014;2022-12-18T09:05:54;69.33;;;31.95;;
25663;SDS011;13522;50.018;20.014;2022-12-18T09:09:06;75.68;;;31.63;;
25663;SDS011;13522;50.018;20.014;2022-12-18T09:12:19;65.95;;;29.85;;
25663;SDS011;13522;50.018;20.014;2022-12-18T09:15:31;74.63;;;33.83;;
25663;SDS011;13522;50.018;20.014;2022-12-18T09:18:43;127.88;;;48.83;;
25663;SDS011;13522;50.018;20.014;2022-12-18T09:21:57;73.98;;;33.13;;
25663;SDS011;13522;50.018;20.014;2022-12-18T09:25:10;70.03;;;31.43;;
25663;SDS011;13522;50.018;20.014;2022-12-18T09:28:22;76.38;;;32.18;;
25663;SDS011;13522;50.018;20.014;2022-12-18T09:31:34;70.63;;;30.95;;
25663;SDS011;13522;50.018;20.014;2022-12-18T09:34:47;76.55;;;33.53;;
25663;SDS011;13522;50.018;20.014;2022-12-18T09:37:58;71.53;;;32.50;;
25663;SDS011;13522;50.018;20.014;2022-12-18T09:41:15;73.18;;;32.45;;
25663;SDS011;13522;50.018;20.014;2022-12-18T09:44:39;69.43;;;32.58;;
25663;SDS011;13522;50.018;20.014;2022-12-18T09:47:56;76.88;;;34.03;;
25663;SDS011;13522;50.018;20.014;2022-12-18T09:51:10;72.90;;;33.08;;
25663;SDS011;13522;50.018;20.014;2022-12-18T09:54:29;147.63;;;67.50;;
25663;SDS011;13522;50.018;20.014;2022-12-18T09:57:47;74.55;;;33.75;;
25663;SDS011;13522;50.018;20.014;2022-12-18T10:01:06;72.80;;;33.58;;
25663;SDS011;13522;50.018;20.014;2022-12-18T10:04:22;67.38;;;31.25;;
25663;SDS011;13522;50.018;20.014;2022-12-18T10:07:41;75.13;;;33.05;;
25663;SDS011;13522;50.018;20.014;2022-12-18T10:11:09;67.78;;;30.98;;
25663;SDS011;13522;50.018;20.014;2022-12-18T10:14:43;74.10;;;32.15;;
25663;SDS011;13522;50.018;20.014;2022-12-18T10:18:01;68.60;;;31.33;;
25663;SDS011;13522;50.018;20.014;2022-12-18T10:21:27;63.83;;;30.05;;
25663;SDS011;13522;50.018;20.014;2022-12-18T10:24:44;65.90;;;31.45;;
25663;SDS011;13522;50.018;20.014;2022-12-18T10:28:07;72.68;;;32.55;;
25663;SDS011;13522;50.018;20.014;2022-12-18T10:31:22;70.00;;;31.23;;
25663;SDS011;13522;50.018;20.014;2022-12-18T10:34:36;65.58;;;30.13;;
25663;SDS011;13522;50.018;20.014;2022-12-18T10:38:04;67.63;;;31.08;;
25663;SDS011;13522;50.018;20.014;2022-12-18T10:41:30;65.18;;;30.05;;
25663;SDS011;13522;50.018;20.014;2022-12-18T10:44:42;68.38;;;31.58;;
25663;SDS011;13522;50.018;20.014;2022-12-18T10:47:54;64.15;;;29.35;;
25663;SDS011;13522;50.018;20.014;2022-12-18T10:51:06;59.90;;;29.63;;
25663;SDS011;13522;50.018;20.014;2022-12-18T10:54:21;64.83;;;29.35;;
25663;SDS011;13522;50.018;20.014;2022-12-18T10:57:35;58.53;;;26.53;;
25663;SDS011;13522;50.018;20.014;2022-12-18T11:00:53;52.20;;;23.53;;
25663;SDS011;13522;50.018;20.014;2022-12-18T11:04:18;56.05;;;25.03;;
25663;SDS011;13522;50.018;20.014;2022-12-18T11:11:01;58.93;;;28.50;;
25663;SDS011;13522;50.018;20.014;2022-12-18T11:14:21;102.33;;;45.13;;
25663;SDS011;13522;50.018;20.014;2022-12-18T11:17:36;72.73;;;31.80;;
25663;SDS011;13522;50.018;20.014;2022-12-18T11:20:52;60.53;;;28.90;;
25663;SDS011;13522;50.018;20.014;2022-12-18T11:24:08;61.25;;;29.53;;
25663;SDS011;13522;50.018;20.014;2022-12-18T11:27:31;61.90;;;27.93;;
25663;SDS011;13522;50.018;20.014;2022-12-18T11:30:43;57.50;;;27.38;;
25663;SDS011;13522;50.018;20.014;2022-12-18T11:33:58;57.85;;;28.55;;
25663;SDS011;13522;50.018;20.014;2022-12-18T11:37:19;57.15;;;28.28;;
25663;SDS011;13522;50.018;20.014;2022-12-18T11:40:33;62.53;;;29.73;;
25663;SDS011;13522;50.018;20.014;2022-12-18T11:43:50;60.87;;;29.53;;
25663;SDS011;13522;50.018;20.014;2022-12-18T11:47:09;50.80;;;25.00;;
25663;SDS011;13522;50.018;20.014;2022-12-18T11:50:31;51.13;;;25.45;;
25663;SDS011;13522;50.018;20.014;2022-12-18T11:53:52;54.45;;;26.45;;
25663;SDS011;13522;50.018;20.014;2022-12-18T11:57:08;47.95;;;23.78;;
25663;SDS011;13522;50.018;20.014;2022-12-18T12:00:25;46.88;;;23.68;;
25663;SDS011;13522;50.018;20.014;2022-12-18T12:03:43;50.55;;;24.00;;
25663;SDS011;13522;50.018;20.014;2022-12-18T12:07:26;45.30;;;22.45;;
25663;SDS011;13522;50.018;20.014;2022-12-18T12:10:50;53.88;;;24.33;;
25663;SDS011;13522;50.018;20.014;2022-12-18T12:14:13;49.73;;;23.60;;
25663;SDS011;13522;50.018;20.014;2022-12-18T12:17:36;49.65;;;23.30;;
25663;SDS011;13522;50.018;20.014;2022-12-18T12:20:57;51.43;;;23.35;;
25663;SDS011;13522;50.018;20.014;2022-12-18T12:24:22;43.08;;;20.95;;
25663;SDS011;13522;50.018;20.014;2022-12-18T12:27:44;45.90;;;22.25;;
25663;SDS011;13522;50.018;20.014;2022-12-18T12:31:04;52.33;;;24.35;;
25663;SDS011;13522;50.018;20.014;2022-12-18T12:34:22;44.95;;;22.10;;
25663;SDS011;13522;50.018;20.014;2022-12-18T12:37:41;44.93;;;21.45;;
25663;SDS011;13522;50.018;20.014;2022-12-18T12:40:59;48.18;;;22.98;;
25663;SDS011;13522;50.018;20.014;2022-12-18T12:44:20;46.70;;;21.50;;
25663;SDS011;13522;50.018;20.014;2022-12-18T12:47:38;48.35;;;22.10;;
25663;SDS011;13522;50.018;20.014;2022-12-18T12:50:52;46.03;;;21.90;;
25663;SDS011;13522;50.018;20.014;2022-12-18T12:54:06;41.58;;;20.38;;
25663;SDS011;13522;50.018;20.014;2022-12-18T12:57:26;47.05;;;22.28;;
25663;SDS011;13522;50.018;20.014;2022-12-18T13:00:44;45.65;;;23.38;;
25663;SDS011;13522;50.018;20.014;2022-12-18T13:04:05;45.60;;;21.88;;
25663;SDS011;13522;50.018;20.014;2022-12-18T13:07:26;45.80;;;22.25;;
25663;SDS011;13522;50.018;20.014;2022-12-18T13:10:43;48.58;;;22.55;;
25663;SDS011;13522;50.018;20.014;2022-12-18T13:13:58;50.10;;;23.20;;
25663;SDS011;13522;50.018;20.014;2022-12-18T13:17:29;51.23;;;23.70;;
25663;SDS011;13522;50.018;20.014;2022-12-18T13:20:43;47.18;;;21.68;;
25663;SDS011;13522;50.018;20.014;2022-12-18T13:24:14;49.58;;;22.28;;
25663;SDS011;13522;50.018;20.014;2022-12-18T13:42:43;52.65;;;23.38;;
25663;SDS011;13522;50.018;20.014;2022-12-18T13:46:23;36.75;;;17.48;;
25663;SDS011;13522;50.018;20.014;2022-12-18T13:49:38;56.25;;;26.25;;
25663;SDS011;13522;50.018;20.014;2022-12-18T13:52:52;60.53;;;27.03;;
25663;SDS011;13522;50.018;20.014;2022-12-18T13:56:08;56.37;;;26.73;;
25663;SDS011;13522;50.018;20.014;2022-12-18T13:59:25;60.58;;;28.10;;
25663;SDS011;13522;50.018;20.014;2022-12-18T14:02:47;66.23;;;29.38;;
25663;SDS011;13522;50.018;20.014;2022-12-18T14:06:03;66.20;;;30.15;;
25663;SDS011;13522;50.018;20.014;2022-12-18T14:09:21;65.73;;;31.65;;
25663;SDS011;13522;50.018;20.014;2022-12-18T14:12:38;62.15;;;29.45;;
25663;SDS011;13522;50.018;20.014;2022-12-18T14:16:12;71.98;;;33.10;;
25663;SDS011;13522;50.018;20.014;2022-12-18T14:19:27;70.90;;;33.78;;
25663;SDS011;13522;50.018;20.014;2022-12-18T14:22:39;84.80;;;38.83;;
25663;SDS011;13522;50.018;20.014;2022-12-18T14:25:55;71.53;;;33.88;;
25663;SDS011;13522;50.018;20.014;2022-12-18T14:29:19;74.25;;;33.70;;
25663;SDS011;13522;50.018;20.014;2022-12-18T14:32:34;73.65;;;34.33;;
25663;SDS011;13522;50.018;20.014;2022-12-18T14:35:53;69.68;;;33.73;;
25663;SDS011;13522;50.018;20.014;2022-12-18T14:39:14;64.48;;;31.80;;
25663;SDS011;13522;50.018;20.014;2022-12-18T14:42:28;76.65;;;34.20;;
25663;SDS011;13522;50.018;20.014;2022-12-18T14:45:41;81.05;;;35.15;;
25663;SDS011;13522;50.018;20.014;2022-12-18T14:48:54;82.80;;;35.13;;
25663;SDS011;13522;50.018;20.014;2022-12-18T14:52:24;81.98;;;36.95;;
25663;SDS011;13522;50.018;20.014;2022-12-18T14:55:32;76.25;;;34.70;;
25663;SDS011;13522;50.018;20.014;2022-12-18T14:58:48;85.75;;;39.75;;
25663;SDS011;13522;50.018;20.014;2022-12-18T15:02:04;89.50;;;40.33;;
25663;SDS011;13522;50.018;20.014;2022-12-18T15:05:26;102.53;;;47.65;;
25663;SDS011;13522;50.018;20.014;2022-12-18T15:08:40;85.50;;;38.63;;
25663;SDS011;13522;50.018;20.014;2022-12-18T15:11:56;84.13;;;38.88;;
25663;SDS011;13522;50.018;20.014;2022-12-18T15:19:01;74.55;;;33.45;;
25663;SDS011;13522;50.018;20.014;2022-12-18T15:22:21;79.10;;;36.35;;
25663;SDS011;13522;50.018;20.014;2022-12-18T15:25:36;77.25;;;35.73;;
25663;SDS011;13522;50.018;20.014;2022-12-18T15:28:49;78.13;;;34.88;;
25663;SDS011;13522;50.018;20.014;2022-12-18T15:32:05;75.00;;;34.08;;
25663;SDS011;13522;50.018;20.014;2022-12-18T15:35:26;79.55;;;36.93;;
25663;SDS011;13522;50.018;20.014;2022-12-18T15:38:38;87.20;;;39.43;;
25663;SDS011;13522;50.018;20.014;2022-12-18T15:41:52;81.85;;;37.23;;
25663;SDS011;13522;50.018;20.014;2022-12-18T15:48:30;75.73;;;33.30;;
25663;SDS011;13522;50.018;20.014;2022-12-18T15:51:46;79.43;;;34.85;;
25663;SDS011;13522;50.018;20.014;2022-12-18T15:55:03;77.23;;;35.15;;
25663;SDS011;13522;50.018;20.014;2022-12-18T15:58:34;80.10;;;37.73;;
25663;SDS011;13522;50.018;20.014;2022-12-18T16:01:47;81.05;;;36.95;;
25663;SDS011;13522;50.018;20.014;2022-12-18T16:05:01;89.08;;;41.60;;
25663;SDS011;13522;50.018;20.014;2022-12-18T16:08:19;88.13;;;41.93;;
25663;SDS011;13522;50.018;20.014;2022-12-18T16:11:32;98.33;;;43.98;;
25663;SDS011;13522;50.018;20.014;2022-12-18T16:14:46;103.03;;;45.43;;
25663;SDS011;13522;50.018;20.014;2022-12-18T16:17:59;95.68;;;43.88;;
25663;SDS011;13522;50.018;20.014;2022-12-18T16:21:12;98.18;;;43.88;;
25663;SDS011;13522;50.018;20.014;2022-12-18T16:24:25;97.83;;;44.85;;
25663;SDS011;13522;50.018;20.014;2022-12-18T16:27:40;105.73;;;47.40;;
25663;SDS011;13522;50.018;20.014;2022-12-18T16:30:54;106.35;;;47.40;;
25663;SDS011;13522;50.018;20.014;2022-12-18T16:34:13;112.05;;;48.05;;
25663;SDS011;13522;50.018;20.014;2022-12-18T16:37:32;109.48;;;47.85;;
25663;SDS011;13522;50.018;20.014;2022-12-18T16:40:44;103.65;;;47.53;;
25663;SDS011;13522;50.018;20.014;2022-12-18T16:44:11;98.28;;;46.10;;
25663;SDS011;13522;50.018;20.014;2022-12-18T16:47:24;107.78;;;48.80;;
25663;SDS011;13522;50.018;20.014;2022-12-18T16:50:36;107.48;;;49.75;;
25663;SDS011;13522;50.018;20.014;2022-12-18T16:53:48;105.85;;;46.93;;
25663;SDS011;13522;50.018;20.014;2022-12-18T16:57:01;102.90;;;47.65;;
25663;SDS011;13522;50.018;20.014;2022-12-18T17:00:15;112.05;;;50.70;;
25663;SDS011;13522;50.018;20.014;2022-12-18T17:03:27;114.73;;;50.35;;
25663;SDS011;13522;50.018;20.014;2022-12-18T17:06:40;113.65;;;51.50;;
25663;SDS011;13522;50.018;20.014;2022-12-18T17:13:07;117.05;;;52.68;;
25663;SDS011;13522;50.018;20.014;2022-12-18T17:16:21;112.38;;;50.68;;
25663;SDS011;13522;50.018;20.014;2022-12-18T17:19:35;113.70;;;51.45;;
25663;SDS011;13522;50.018;20.014;2022-12-18T17:22:47;117.33;;;51.95;;
25663;SDS011;13522;50.018;20.014;2022-12-18T17:26:00;111.60;;;51.45;;
25663;SDS011;13522;50.018;20.014;2022-12-18T17:29:15;120.13;;;54.75;;
25663;SDS011;13522;50.018;20.014;2022-12-18T17:32:29;89.43;;;41.43;;
25663;SDS011;13522;50.018;20.014;2022-12-18T17:35:41;123.83;;;54.53;;
25663;SDS011;13522;50.018;20.014;2022-12-18T17:38:54;124.60;;;55.35;;
25663;SDS011;13522;50.018;20.014;2022-12-18T17:42:08;119.25;;;55.65;;
25663;SDS011;13522;50.018;20.014;2022-12-18T17:45:21;126.40;;;55.85;;
25663;SDS011;13522;50.018;20.014;2022-12-18T17:48:34;114.75;;;55.78;;
25663;SDS011;13522;50.018;20.014;2022-12-18T17:51:48;113.50;;;53.60;;
25663;SDS011;13522;50.018;20.014;2022-12-18T17:55:01;143.35;;;61.38;;
25663;SDS011;13522;50.018;20.014;2022-12-18T17:58:15;138.38;;;63.75;;
25663;SDS011;13522;50.018;20.014;2022-12-18T18:01:27;134.43;;;61.90;;
25663;SDS011;13522;50.018;20.014;2022-12-18T18:04:41;142.70;;;62.35;;
25663;SDS011;13522;50.018;20.014;2022-12-18T18:07:53;154.30;;;70.23;;
25663;SDS011;13522;50.018;20.014;2022-12-18T18:11:07;153.98;;;68.90;;
25663;SDS011;13522;50.018;20.014;2022-12-18T18:14:36;142.73;;;68.58;;
25663;SDS011;13522;50.018;20.014;2022-12-18T18:17:48;150.35;;;69.43;;
25663;SDS011;13522;50.018;20.014;2022-12-18T18:21:04;144.60;;;67.83;;
25663;SDS011;13522;50.018;20.014;2022-12-18T18:24:19;155.53;;;70.00;;
25663;SDS011;13522;50.018;20.014;2022-12-18T18:27:33;159.53;;;71.65;;
25663;SDS011;13522;50.018;20.014;2022-12-18T18:30:46;146.00;;;67.70;;
25663;SDS011;13522;50.018;20.014;2022-12-18T18:33:59;144.45;;;66.90;;
25663;SDS011;13522;50.018;20.014;2022-12-18T18:37:11;144.03;;;64.23;;
25663;SDS011;13522;50.018;20.014;2022-12-18T18:40:23;153.68;;;67.80;;
25663;SDS011;13522;50.018;20.014;2022-12-18T18:43:36;134.28;;;64.88;;
25663;SDS011;13522;50.018;20.014;2022-12-18T18:46:48;160.75;;;70.35;;
25663;SDS011;13522;50.018;20.014;2022-12-18T18:50:03;156.75;;;71.05;;
25663;SDS011;13522;50.018;20.014;2022-12-18T18:53:16;159.05;;;69.53;;
25663;SDS011;13522;50.018;20.014;2022-12-18T18:56:29;177.23;;;77.38;;
25663;SDS011;13522;50.018;20.014;2022-12-18T18:59:44;172.90;;;77.83;;
25663;SDS011;13522;50.018;20.014;2022-12-18T19:02:57;186.10;;;78.90;;
25663;SDS011;13522;50.018;20.014;2022-12-18T19:06:12;182.38;;;79.00;;
25663;SDS011;13522;50.018;20.014;2022-12-18T19:09:27;181.35;;;78.80;;
25663;SDS011;13522;50.018;20.014;2022-12-18T19:12:40;162.73;;;72.08;;
25663;SDS011;13522;50.018;20.014;2022-12-18T19:16:09;172.60;;;73.38;;